Time;durP1;ratioP1;P1;durP2;ratioP2;P2;SDS_P1;SDS_P2;PMS_P1;PMS_P2;Temp;Humidity;BMP_temperature;BMP_pressure;BME280_temperature;BME280_humidity;BME280_pressure;Samples;Min_cycle;Max_cycle;Signal;HPM_P1;HPM_P2
2021/08/31 00:02:13;;;;;;;32.30;20.70;;;;;;;9.36;88.37;97305.80;116178;1179;71352;-74
2021/08/31 00:04:42;;;;;;;27.20;18.90;;;;;;;9.35;88.03;97305.75;116199;1183;68389;-76
2021/08/31 00:07:11;;;;;;;28.70;19.20;;;;;;;9.36;88.79;97307.23;116155;1184;69119;-74
2021/08/31 00:09:41;;;;;;;26.70;18.70;;;;;;;9.37;89.01;97304.52;116212;1183;59488;-73
2021/08/31 00:12:10;;;;;;;23.40;16.80;;;;;;;9.36;88.32;97303.59;116218;1180;59499;-73
2021/08/31 00:14:40;;;;;;;25.50;18.00;;;;;;;9.36;88.75;97303.21;116212;1184;71269;-75
2021/08/31 00:17:09;;;;;;;24.00;17.30;;;;;;;9.37;88.66;97304.61;116192;1184;69182;-75
2021/08/31 00:19:39;;;;;;;19.00;15.30;;;;;;;9.35;89.19;97304.65;116188;1179;68666;-78
2021/08/31 00:22:08;;;;;;;19.50;15.40;;;;;;;9.33;89.42;97306.13;116183;1179;59565;-75
2021/08/31 00:24:39;;;;;;;21.60;14.50;;;;;;;9.30;89.15;97307.70;116226;1180;59519;-75
2021/08/31 00:27:08;;;;;;;17.90;15.30;;;;;;;9.28;89.03;97309.10;116122;1179;71186;-75
2021/08/31 00:29:38;;;;;;;20.70;15.20;;;;;;;9.26;88.81;97311.11;116041;1181;68677;-74
2021/08/31 00:32:08;;;;;;;18.00;14.90;;;;;;;9.26;88.27;97310.49;115938;1184;68052;-74
2021/08/31 00:34:37;;;;;;;21.90;13.90;;;;;;;9.26;88.14;97308.84;116170;1180;59978;-75
2021/08/31 00:37:07;;;;;;;18.60;13.90;;;;;;;9.24;88.15;97308.65;116168;1184;59556;-74
2021/08/31 00:39:37;;;;;;;18.90;13.90;;;;;;;9.23;88.43;97313.36;116217;1179;71536;-75
2021/08/31 00:42:06;;;;;;;21.30;15.50;;;;;;;9.22;88.77;97316.60;116150;1179;68998;-73
2021/08/31 00:44:35;;;;;;;26.30;17.90;;;;;;;9.21;88.32;97317.75;116142;1184;67691;-74
2021/08/31 00:47:06;;;;;;;21.40;15.80;;;;;;;9.18;88.20;97320.98;116167;1184;59593;-73
2021/08/31 00:49:36;;;;;;;20.70;15.00;;;;;;;9.15;88.92;97320.02;116197;1184;59538;-75
2021/08/31 00:52:06;;;;;;;18.40;13.70;;;;;;;9.11;88.76;97319.17;116166;1184;71395;-73
2021/08/31 00:54:37;;;;;;;17.90;13.70;;;;;;;9.08;89.29;97323.12;116164;1184;69140;-72
2021/08/31 00:57:06;;;;;;;16.60;13.80;;;;;;;9.03;89.84;97323.54;116077;1181;69674;-77
2021/08/31 00:59:36;;;;;;;16.60;12.50;;;;;;;9.00;89.97;97322.53;116105;1180;59548;-73
2021/08/31 01:02:06;;;;;;;18.20;13.30;;;;;;;8.95;89.55;97326.97;116143;1184;59560;-77
2021/08/31 01:04:36;;;;;;;17.70;14.00;;;;;;;8.90;88.94;97324.02;116174;1184;70525;-74
2021/08/31 01:07:06;;;;;;;14.90;12.30;;;;;;;8.86;89.30;97323.98;116214;1183;69158;-76
2021/08/31 01:09:37;;;;;;;18.90;13.50;;;;;;;8.81;89.20;97326.00;116231;1184;67278;-75
2021/08/31 01:12:07;;;;;;;17.60;13.00;;;;;;;8.78;88.92;97326.20;116153;1184;59537;-77
2021/08/31 01:14:36;;;;;;;19.80;13.20;;;;;;;8.74;88.86;97328.90;116150;1179;60407;-74
2021/08/31 01:17:06;;;;;;;18.00;12.40;;;;;;;8.71;88.90;97328.04;116159;1181;71142;-74
2021/08/31 01:19:36;;;;;;;17.50;14.20;;;;;;;8.67;88.73;97326.32;116008;1185;69074;-74
2021/08/31 01:22:12;;;;;;;21.70;15.60;;;;;;;8.64;88.58;97326.41;116078;1179;69238;-75
2021/08/31 01:24:42;;;;;;;23.00;15.20;;;;;;;8.61;88.49;97326.27;116077;1182;59591;-78
2021/08/31 01:27:13;;;;;;;22.90;15.90;;;;;;;8.59;88.62;97325.85;116162;1180;59528;-72
2021/08/31 01:29:44;;;;;;;26.60;17.90;;;;;;;8.60;88.19;97323.80;116133;1184;71320;-75
2021/08/31 01:32:14;;;;;;;22.50;16.10;;;;;;;8.60;88.26;97327.27;116121;1184;68450;-73
2021/08/31 01:34:44;;;;;;;24.30;17.20;;;;;;;8.60;88.16;97325.67;116106;1184;69356;-73
2021/08/31 01:37:13;;;;;;;21.30;15.90;;;;;;;8.61;88.44;97326.21;116001;1184;59507;-76
2021/08/31 01:39:43;;;;;;;20.90;15.60;;;;;;;8.61;89.67;97327.63;116166;1184;59552;-76
2021/08/31 01:42:13;;;;;;;19.80;14.40;;;;;;;8.59;89.36;97323.81;116047;1184;71374;-72
2021/08/31 01:44:43;;;;;;;20.10;15.10;;;;;;;8.57;89.03;97323.00;116176;1184;68089;-72
2021/08/31 01:47:13;;;;;;;20.60;14.20;;;;;;;8.54;89.00;97332.15;116146;1184;68648;-77
2021/08/31 01:49:44;;;;;;;24.00;14.60;;;;;;;8.50;88.66;97332.94;116099;1184;59543;-75
2021/08/31 01:52:19;;;;;;;23.80;16.80;;;;;;;8.47;88.30;97335.52;116172;1179;59502;-75
2021/08/31 01:54:48;;;;;;;26.20;17.60;;;;;;;8.48;88.33;97337.80;116142;1184;71260;-77
2021/08/31 01:57:17;;;;;;;23.90;16.40;;;;;;;8.49;88.49;97335.80;116121;1180;69134;-78
2021/08/31 01:59:48;;;;;;;20.30;14.70;;;;;;;8.48;88.45;97338.02;116046;1184;68391;-73
2021/08/31 02:02:17;;;;;;;21.40;14.30;;;;;;;8.45;88.65;97336.68;116106;1181;59551;-76
2021/08/31 02:04:47;;;;;;;22.90;15.60;;;;;;;8.43;89.17;97338.20;116170;1183;59513;-73
2021/08/31 02:07:17;;;;;;;18.70;14.70;;;;;;;8.40;89.17;97336.94;116152;1179;71399;-73
2021/08/31 02:09:46;;;;;;;19.50;14.50;;;;;;;8.36;88.70;97334.81;116161;1184;69465;-76
2021/08/31 02:12:16;;;;;;;23.20;16.10;;;;;;;8.33;88.69;97336.92;116135;1179;68269;-75
2021/08/31 02:14:45;;;;;;;22.80;16.70;;;;;;;8.32;88.53;97335.91;115995;1182;59598;-76
2021/08/31 02:17:16;;;;;;;27.60;18.50;;;;;;;8.35;88.52;97334.77;116155;1179;59556;-72
2021/08/31 02:19:46;;;;;;;25.10;18.40;;;;;;;8.38;88.55;97336.27;116168;1184;71341;-72
2021/08/31 02:22:15;;;;;;;22.00;17.10;;;;;;;8.38;88.67;97339.58;116113;1184;68229;-76
2021/08/31 02:24:45;;;;;;;20.90;15.50;;;;;;;8.38;88.44;97339.65;116237;1184;69144;-73
2021/08/31 02:27:15;;;;;;;21.10;15.60;;;;;;;8.38;88.51;97345.57;116212;1183;59481;-73
2021/08/31 02:29:45;;;;;;;20.00;15.50;;;;;;;8.38;88.35;97342.73;116118;1183;59505;-74
2021/08/31 02:32:14;;;;;;;22.80;16.80;;;;;;;8.38;88.48;97337.21;116191;1183;71192;-75
2021/08/31 02:34:44;;;;;;;23.20;17.10;;;;;;;8.39;88.63;97337.84;116245;1184;69056;-72
2021/08/31 02:37:14;;;;;;;26.30;18.30;;;;;;;8.39;88.34;97337.27;116205;1184;68288;-74
2021/08/31 02:39:44;;;;;;;29.30;18.20;;;;;;;8.41;88.31;97335.10;116216;1180;59546;-75
2021/08/31 02:42:14;;;;;;;31.60;19.50;;;;;;;8.42;88.46;97337.98;116221;1179;59520;-74
2021/08/31 02:44:45;;;;;;;23.00;17.20;;;;;;;8.44;88.90;97339.85;116227;1184;70544;-78
2021/08/31 02:47:19;;;;;;;19.30;15.20;;;;;;;8.41;89.21;97340.77;116214;1184;69095;-75
2021/08/31 02:49:54;;;;;;;18.20;14.00;;;;;;;8.35;89.40;97336.02;116195;1183;69224;-77
2021/08/31 02:52:31;;;;;;;16.90;13.40;;;;;;;8.29;89.14;97335.49;116001;1185;59563;-77
2021/08/31 02:55:07;;;;;;;17.20;12.30;;;;;;;8.23;88.82;97338.86;116219;1179;59505;-74
2021/08/31 02:57:38;;;;;;;19.00;13.10;;;;;;;8.17;89.23;97336.70;116239;1183;71010;-76
2021/08/31 03:00:17;;;;;;;19.10;13.80;;;;;;;8.13;89.27;97343.80;116242;1184;67461;-75
2021/08/31 03:02:47;;;;;;;20.80;15.00;;;;;;;8.09;89.41;97338.14;116145;1179;69431;-75
2021/08/31 03:05:17;;;;;;;23.60;16.90;;;;;;;8.08;89.07;97341.79;116133;1181;59572;-75
2021/08/31 03:07:47;;;;;;;26.60;18.40;;;;;;;8.09;88.95;97341.54;116221;1183;59549;-73
2021/08/31 03:10:16;;;;;;;23.90;17.60;;;;;;;8.10;88.74;97343.16;116223;1183;70592;-74
2021/08/31 03:12:46;;;;;;;23.60;16.70;;;;;;;8.09;88.76;97336.00;116127;1181;68379;-74
2021/08/31 03:15:16;;;;;;;21.10;16.40;;;;;;;8.07;88.81;97340.84;116137;1183;68236;-73
2021/08/31 03:17:47;;;;;;;22.90;17.10;;;;;;;8.05;88.80;97344.27;116236;1179;59538;-72
2021/08/31 03:20:18;;;;;;;29.30;18.40;;;;;;;8.04;88.94;97341.46;116190;1180;59575;-74
2021/08/31 03:22:47;;;;;;;26.20;18.60;;;;;;;8.04;88.75;97344.45;116246;1183;71139;-76
2021/08/31 03:25:17;;;;;;;25.30;18.50;;;;;;;8.05;88.75;97346.86;116166;1182;69040;-73
2021/08/31 03:27:46;;;;;;;26.40;18.30;;;;;;;8.07;88.92;97349.11;116183;1182;69256;-73
2021/08/31 03:30:19;;;;;;;25.20;18.80;;;;;;;8.08;88.84;97351.47;116201;1179;59595;-73
2021/08/31 03:32:48;;;;;;;27.20;19.00;;;;;;;8.09;88.99;97351.54;116270;1180;59541;-74
2021/08/31 03:35:20;;;;;;;29.10;19.60;;;;;;;8.12;88.86;97351.30;116132;1178;71327;-72
2021/08/31 03:37:50;;;;;;;22.60;18.20;;;;;;;8.17;88.91;97352.46;116262;1182;69142;-72
2021/08/31 03:40:20;;;;;;;25.10;18.00;;;;;;;8.20;89.77;97352.55;116149;1182;68436;-73
2021/08/31 03:42:50;;;;;;;24.00;17.10;;;;;;;8.21;89.96;97352.38;116174;1183;59550;-74
2021/08/31 03:45:22;;;;;;;25.70;17.70;;;;;;;8.22;89.45;97352.75;116130;1181;59601;-72
2021/08/31 03:47:58;;;;;;;23.50;16.50;;;;;;;8.24;89.49;97350.09;116217;1183;71442;-75
2021/08/31 03:50:27;;;;;;;22.80;16.20;;;;;;;8.23;89.31;97353.89;116247;1183;68376;-77
2021/08/31 03:52:57;;;;;;;31.50;17.40;;;;;;;8.21;89.03;97353.48;116203;1183;69023;-73
2021/08/31 03:55:27;;;;;;;23.90;17.30;;;;;;;8.20;89.21;97353.50;116174;1178;59540;-75
2021/08/31 03:57:57;;;;;;;29.40;19.10;;;;;;;8.23;89.58;97350.21;116197;1183;59462;-75
2021/08/31 04:00:26;;;;;;;30.50;19.50;;;;;;;8.24;89.85;97352.48;116199;1184;70577;-73
2021/08/31 04:02:56;;;;;;;26.90;18.30;;;;;;;8.25;89.72;97347.08;116194;1184;68369;-74
2021/08/31 04:05:26;;;;;;;29.80;19.50;;;;;;;8.33;89.94;97350.80;116228;1179;69223;-75
2021/08/31 04:07:56;;;;;;;28.60;18.80;;;;;;;8.47;89.89;97355.70;116216;1183;59479;-77
2021/08/31 04:10:26;;;;;;;26.10;18.30;;;;;;;8.59;89.74;97359.77;116257;1183;59607;-73
2021/08/31 04:12:56;;;;;;;21.60;15.90;;;;;;;8.65;89.47;97365.27;116244;1180;71179;-73
2021/08/31 04:15:25;;;;;;;19.10;14.70;;;;;;;8.70;89.48;97365.36;116055;1181;68577;-75
2021/08/31 04:17:55;;;;;;;18.70;14.60;;;;;;;8.77;89.53;97363.16;116212;1183;68233;-73
2021/08/31 04:20:24;;;;;;;18.30;14.60;;;;;;;8.97;89.21;97368.28;116218;1184;59598;-72
2021/08/31 04:22:54;;;;;;;18.50;13.50;;;;;;;9.20;89.07;97365.13;116201;1183;59547;-73
2021/08/31 04:25:23;;;;;;;14.80;12.10;;;;;;;9.45;88.72;97365.44;116210;1183;71406;-73
2021/08/31 04:27:53;;;;;;;16.90;11.40;;;;;;;9.69;88.47;97368.83;116057;1184;69763;-74
2021/08/31 04:30:22;;;;;;;14.90;10.00;;;;;;;9.85;87.24;97370.20;116083;1184;69226;-74
2021/08/31 04:32:52;;;;;;;13.30;8.00;;;;;;;9.94;85.49;97370.13;116082;1184;59552;-73
2021/08/31 04:35:22;;;;;;;11.90;8.00;;;;;;;10.16;84.53;97370.40;116148;1182;59552;-72
2021/08/31 04:37:52;;;;;;;16.00;7.10;;;;;;;10.39;84.67;97373.52;116109;1181;71348;-77
2021/08/31 04:40:21;;;;;;;14.00;7.50;;;;;;;10.50;84.89;97369.42;116115;1180;68232;-77
2021/08/31 04:42:52;;;;;;;15.00;6.50;;;;;;;10.67;81.75;97366.84;116055;1184;68231;-78
2021/08/31 04:45:21;;;;;;;;;;;;;;;10.82;79.16;97369.06;116116;1184;59517;-73
2021/08/31 04:47:50;;;;;;;11.40;6.00;;;;;;;11.01;79.08;97369.17;116159;1184;59573;-76
2021/08/31 04:50:20;;;;;;;10.00;6.20;;;;;;;11.21;78.97;97373.28;116066;1184;71406;-77
2021/08/31 04:52:49;;;;;;;15.90;6.20;;;;;;;11.50;80.96;97372.15;116139;1184;68249;-73
2021/08/31 04:55:20;;;;;;;10.00;6.40;;;;;;;11.87;81.98;97373.12;116117;1184;68669;-77
2021/08/31 04:57:52;;;;;;;10.10;6.00;;;;;;;12.19;80.52;97368.70;115969;1183;59530;-73
2021/08/31 05:00:21;;;;;;;14.30;6.10;;;;;;;12.46;78.98;97363.05;116136;1181;59533;-74
2021/08/31 05:02:51;;;;;;;9.80;5.70;;;;;;;12.70;78.07;97367.36;116059;1184;70584;-76
2021/08/31 05:05:21;;;;;;;12.80;5.30;;;;;;;12.68;76.24;97371.48;115979;1185;68530;-73
2021/08/31 05:07:50;;;;;;;9.10;5.30;;;;;;;12.73;75.17;97362.89;116026;1184;68884;-73
2021/08/31 05:10:20;;;;;;;9.60;5.40;;;;;;;12.79;73.86;97365.04;116084;1184;59552;-76
2021/08/31 05:12:49;;;;;;;8.30;5.40;;;;;;;12.85;73.49;97363.36;116040;1184;59508;-75
2021/08/31 05:15:18;;;;;;;9.40;5.50;;;;;;;12.99;73.52;97367.57;116096;1179;71379;-72
2021/08/31 05:17:47;;;;;;;9.30;5.20;;;;;;;13.20;73.44;97365.35;116097;1185;69184;-73
2021/08/31 05:20:18;;;;;;;12.10;5.80;;;;;;;13.48;73.43;97371.19;116104;1184;69041;-75
2021/08/31 05:22:50;;;;;;;10.90;5.20;;;;;;;13.83;72.26;97370.02;116086;1182;59570;-74
2021/08/31 05:25:20;;;;;;;14.90;5.60;;;;;;;14.14;71.76;97366.52;116194;1182;59588;-74
2021/08/31 05:27:49;;;;;;;8.50;4.60;;;;;;;14.51;70.95;97362.70;116166;1184;70520;-73
2021/08/31 05:30:19;;;;;;;7.80;4.40;;;;;;;14.76;69.23;97363.50;116166;1184;68470;-76
2021/08/31 05:32:48;;;;;;;11.90;4.70;;;;;;;15.04;68.39;97366.48;115974;1185;68778;-74
2021/08/31 05:35:17;;;;;;;10.90;4.80;;;;;;;15.31;67.82;97363.88;116030;1184;59541;-74
2021/08/31 05:37:46;;;;;;;10.10;4.90;;;;;;;15.56;67.35;97359.91;116133;1181;59552;-74
2021/08/31 05:40:15;;;;;;;9.80;4.90;;;;;;;15.50;66.32;97364.15;116060;1180;71290;-73
2021/08/31 05:42:46;;;;;;;8.90;4.30;;;;;;;15.70;66.36;97363.17;116081;1184;68997;-72
2021/08/31 05:45:15;;;;;;;7.90;4.20;;;;;;;15.77;65.19;97360.77;116087;1184;68660;-72
2021/08/31 05:47:44;;;;;;;7.90;4.80;;;;;;;15.98;65.56;97362.92;116150;1182;59531;-74
2021/08/31 05:50:13;;;;;;;6.90;3.90;;;;;;;16.06;65.45;97364.48;116123;1179;59501;-77
2021/08/31 05:52:43;;;;;;;5.90;4.50;;;;;;;15.98;64.60;97362.16;116148;1184;71361;-74
2021/08/31 05:55:12;;;;;;;8.80;4.30;;;;;;;15.97;64.64;97367.31;116075;1184;69413;-73
2021/08/31 05:57:41;;;;;;;9.40;4.40;;;;;;;16.07;64.85;97364.63;116076;1185;68408;-74
2021/08/31 06:00:11;;;;;;;8.00;3.90;;;;;;;16.06;64.52;97366.11;116111;1182;59548;-74
2021/08/31 06:02:43;;;;;;;9.90;4.90;;;;;;;16.00;63.91;97364.42;116092;1182;59507;-73
2021/08/31 06:05:13;;;;;;;7.80;4.50;;;;;;;16.17;63.71;97358.55;116163;1184;71785;-74
2021/08/31 06:07:42;;;;;;;6.90;4.40;;;;;;;16.20;64.24;97355.10;116144;1184;69204;-76
2021/08/31 06:10:14;;;;;;;6.90;4.90;;;;;;;16.41;63.05;97354.77;116132;1184;69298;-73
2021/08/31 06:12:43;;;;;;;7.70;4.60;;;;;;;16.43;63.59;97350.34;115988;1184;59539;-77
2021/08/31 06:15:12;;;;;;;6.30;4.50;;;;;;;16.57;63.41;97345.30;116122;1184;59548;-77
2021/08/31 06:17:41;;;;;;;6.30;4.60;;;;;;;16.92;63.07;97349.09;116006;1185;70164;-78
2021/08/31 06:20:10;;;;;;;13.50;4.30;;;;;;;17.17;61.30;97352.57;116027;1184;69219;-74
2021/08/31 06:22:39;;;;;;;11.70;4.50;;;;;;;17.33;61.57;97352.08;115923;1182;69276;-74
2021/08/31 06:25:09;;;;;;;7.00;4.70;;;;;;;17.69;60.69;97354.05;115928;1182;59523;-73
2021/08/31 06:27:38;;;;;;;5.50;4.10;;;;;;;17.83;59.47;97361.02;116204;1183;59481;-73
2021/08/31 06:30:07;;;;;;;8.10;4.50;;;;;;;17.96;58.85;97359.69;116177;1183;71200;-74
2021/08/31 06:32:36;;;;;;;10.00;4.40;;;;;;;18.20;57.89;97363.16;116253;1183;68449;-74
2021/08/31 06:35:05;;;;;;;7.20;3.90;;;;;;;18.55;57.53;97361.94;116173;1183;69271;-76
2021/08/31 06:37:34;;;;;;;10.00;4.40;;;;;;;18.85;56.35;97362.58;116147;1180;59552;-74
2021/08/31 06:40:04;;;;;;;12.60;4.20;;;;;;;19.12;55.64;97360.54;116073;1181;59503;-75
2021/08/31 06:42:33;;;;;;;5.30;4.00;;;;;;;19.06;54.50;97361.92;116305;1183;70587;-74
2021/08/31 06:45:03;;;;;;;6.00;4.10;;;;;;;18.91;55.11;97362.06;116262;1184;69292;-76
2021/08/31 06:47:33;;;;;;;6.40;3.90;;;;;;;19.06;54.27;97366.56;116211;1183;69246;-72
2021/08/31 06:50:03;;;;;;;6.80;4.00;;;;;;;19.20;54.36;97368.49;116200;1181;59528;-77
2021/08/31 06:52:32;;;;;;;9.70;4.20;;;;;;;19.42;53.54;97367.53;116212;1179;59612;-78
2021/08/31 06:55:01;;;;;;;5.80;4.00;;;;;;;19.49;52.60;97363.13;116195;1179;71390;-74
2021/08/31 06:57:30;;;;;;;5.70;3.60;;;;;;;19.54;53.51;97358.77;116098;1184;68976;-77
2021/08/31 06:59:59;;;;;;;10.30;5.30;;;;;;;19.66;52.73;97360.69;116203;1183;69047;-75
2021/08/31 07:02:28;;;;;;;7.60;5.00;;;;;;;19.82;52.08;97358.00;116186;1180;59558;-74
2021/08/31 07:04:57;;;;;;;6.30;4.80;;;;;;;19.86;51.40;97358.37;116136;1182;59555;-78
2021/08/31 07:07:27;;;;;;;6.40;4.10;;;;;;;19.58;51.25;97360.98;116179;1184;70847;-74
2021/08/31 07:09:56;;;;;;;8.90;4.30;;;;;;;19.51;52.57;97358.17;116096;1180;68253;-78
2021/08/31 07:12:26;;;;;;;7.10;4.40;;;;;;;19.38;52.08;97356.93;116175;1184;68590;-74
2021/08/31 07:14:57;;;;;;;5.30;4.10;;;;;;;19.44;52.62;97357.93;116115;1182;59527;-76
2021/08/31 07:17:26;;;;;;;9.90;4.40;;;;;;;19.66;51.82;97358.33;116180;1184;59570;-77
2021/08/31 07:19:55;;;;;;;6.40;4.20;;;;;;;20.07;50.60;97362.75;116097;1181;71337;-77
2021/08/31 07:22:24;;;;;;;5.40;4.30;;;;;;;20.28;49.74;97361.33;116190;1184;68478;-74
2021/08/31 07:24:53;;;;;;;5.80;4.40;;;;;;;20.45;49.64;97369.00;116201;1184;68657;-76
2021/08/31 07:27:22;;;;;;;6.40;3.70;;;;;;;20.79;49.33;97365.00;116278;1182;59556;-74
2021/08/31 07:29:51;;;;;;;5.80;4.40;;;;;;;21.26;48.39;97366.79;116198;1183;59458;-74
2021/08/31 07:32:20;;;;;;;5.90;4.40;;;;;;;21.66;48.25;97369.48;116208;1179;71158;-73
2021/08/31 07:34:50;;;;;;;6.80;3.90;;;;;;;21.88;46.61;97369.41;116204;1180;68975;-76
2021/08/31 07:37:19;;;;;;;4.90;4.10;;;;;;;22.00;46.77;97368.80;116267;1179;69255;-75
2021/08/31 07:39:48;;;;;;;6.10;3.50;;;;;;;22.21;46.64;97366.71;116256;1179;59530;-74
2021/08/31 07:42:17;;;;;;;5.20;3.70;;;;;;;22.25;45.97;97359.67;116246;1180;59573;-73
2021/08/31 07:44:46;;;;;;;7.90;3.70;;;;;;;22.10;46.00;97360.83;116093;1184;70387;-76
2021/08/31 07:47:15;;;;;;;5.40;3.60;;;;;;;22.25;45.82;97358.39;116180;1184;68410;-79
2021/08/31 07:50:03;;;;;;;4.90;3.60;;;;;;;22.53;45.38;97354.79;116186;1184;69211;-79
2021/08/31 07:52:34;;;;;;;5.80;3.60;;;;;;;22.58;45.11;97346.90;116204;1184;59551;-76
2021/08/31 07:55:05;;;;;;;7.40;3.90;;;;;;;22.91;45.52;97351.25;116209;1183;59680;-74
2021/08/31 07:57:38;;;;;;;7.20;3.80;;;;;;;22.87;44.66;97351.90;116224;1180;71414;-78
2021/08/31 08:00:09;;;;;;;5.80;3.60;;;;;;;22.95;44.67;97349.62;116201;1183;68452;-76
2021/08/31 08:02:38;;;;;;;5.80;3.60;;;;;;;22.92;44.96;97349.95;116248;1184;68455;-76
2021/08/31 08:05:09;;;;;;;8.60;3.50;;;;;;;23.01;44.38;97347.58;116228;1184;59525;-78
2021/08/31 08:07:39;;;;;;;5.60;3.60;;;;;;;23.16;43.77;97346.77;116149;1182;59601;-78
2021/08/31 08:10:08;;;;;;;9.80;4.10;;;;;;;23.24;43.62;97346.80;116229;1179;70565;-78
2021/08/31 08:12:37;;;;;;;5.20;3.40;;;;;;;22.86;44.82;97342.91;116215;1183;69194;-73
2021/08/31 08:15:07;;;;;;;5.60;3.80;;;;;;;22.74;44.68;97338.22;116204;1184;69370;-77
2021/08/31 08:17:36;;;;;;;4.30;3.60;;;;;;;22.82;44.50;97337.34;116228;1180;59541;-74
2021/08/31 08:20:08;;;;;;;5.60;3.90;;;;;;;22.96;44.19;97340.17;116173;1184;59543;-79
2021/08/31 08:22:37;;;;;;;16.60;4.10;;;;;;;23.27;43.35;97333.52;116252;1183;71150;-75
2021/08/31 08:25:07;;;;;;;5.00;3.70;;;;;;;23.49;42.74;97334.36;116239;1184;68558;-76
2021/08/31 08:27:36;;;;;;;;;;;;;;;23.55;41.78;97334.01;116059;1184;68289;-74
2021/08/31 08:30:06;;;;;;;6.20;3.70;;;;;;;23.20;43.63;97333.13;116140;1181;59546;-74
2021/08/31 08:32:35;;;;;;;6.20;3.80;;;;;;;23.43;42.07;97329.60;116141;1184;59522;-78
2021/08/31 08:35:06;;;;;;;5.30;3.60;;;;;;;22.83;44.24;97326.45;116109;1180;70396;-74
2021/08/31 08:37:35;;;;;;;7.80;3.30;;;;;;;23.08;43.28;97321.78;116171;1184;69072;-75
2021/08/31 08:40:05;;;;;;;8.80;3.30;;;;;;;23.37;43.33;97322.53;116154;1184;69915;-77
2021/08/31 08:42:36;;;;;;;;;;;;;;;23.92;41.60;97318.05;116226;1182;59547;-76
2021/08/31 08:45:06;;;;;;;4.70;3.60;;;;;;;24.29;40.32;97317.52;116199;1184;59558;-77
2021/08/31 08:47:35;;;;;;;5.80;3.40;;;;;;;23.70;42.06;97314.81;116241;1180;71306;-76
2021/08/31 08:50:05;;;;;;;5.90;3.40;;;;;;;23.92;42.39;97317.33;116191;1184;68553;-73
2021/08/31 08:52:34;;;;;;;4.80;3.30;;;;;;;24.39;40.63;97315.28;116214;1184;69278;-76
2021/08/31 08:55:09;;;;;;;6.10;3.50;;;;;;;24.15;40.99;97311.44;116137;1182;59607;-77
2021/08/31 08:57:39;;;;;;;3.40;3.10;;;;;;;24.19;41.56;97311.32;116269;1181;59542;-76
2021/08/31 09:00:10;;;;;;;8.40;3.30;;;;;;;24.62;40.42;97303.82;116125;1180;71419;-75
2021/08/31 09:02:43;;;;;;;4.70;3.10;;;;;;;24.95;39.38;97299.22;116210;1184;68758;-80
2021/08/31 09:05:30;;;;;;;5.20;3.40;;;;;;;25.29;38.07;97302.89;116175;1181;69330;-75
2021/08/31 09:08:06;;;;;;;3.90;2.50;;;;;;;25.63;37.80;97298.55;116258;1184;59553;-79
2021/08/31 09:10:36;;;;;;;8.10;3.10;;;;;;;25.71;37.74;97299.88;116179;1184;59506;-79
2021/08/31 09:13:05;;;;;;;4.10;3.30;;;;;;;26.12;36.75;97305.05;116236;1183;71391;-76
2021/08/31 09:15:41;;;;;;;4.60;3.30;;;;;;;26.28;35.92;97298.77;116229;1179;69228;-74
2021/08/31 09:18:17;;;;;;;3.80;2.90;;;;;;;26.09;36.91;97299.45;116145;1184;69416;-75
2021/08/31 09:20:55;;;;;;;5.50;3.00;;;;;;;26.37;35.63;97298.04;116132;1181;59561;-73
2021/08/31 09:23:30;;;;;;;3.90;3.10;;;;;;;26.22;36.02;97298.82;116239;1182;59562;-73
2021/08/31 09:26:08;;;;;;;4.50;3.20;;;;;;;26.35;35.53;97299.20;116032;1181;70705;-79
2021/08/31 09:28:41;;;;;;;4.20;3.00;;;;;;;26.03;36.44;97299.33;116168;1184;69280;-76
2021/08/31 09:31:20;;;;;;;4.80;3.10;;;;;;;25.71;36.73;97295.45;116190;1181;69214;-79
2021/08/31 09:33:52;;;;;;;5.20;2.80;;;;;;;25.36;36.55;97301.16;116170;1181;59546;-79
2021/08/31 09:36:23;;;;;;;3.40;2.50;;;;;;;24.65;37.75;97294.44;116192;1181;59546;-77
2021/08/31 09:38:53;;;;;;;4.30;2.60;;;;;;;24.55;38.09;97293.60;116328;1184;70454;-74
2021/08/31 09:41:44;;;;;;;5.20;2.80;;;;;;;24.35;38.38;97296.74;116183;1181;69161;-78
2021/08/31 09:44:18;;;;;;;4.80;2.80;;;;;;;25.06;37.05;97293.21;116148;1184;69046;-77
2021/08/31 09:47:03;;;;;;;4.10;2.80;;;;;;;25.54;35.82;97293.61;116170;1183;60331;-76
2021/08/31 09:49:39;;;;;;;6.10;2.40;;;;;;;25.82;34.91;97291.78;116156;1184;59967;-76
2021/08/31 09:52:16;;;;;;;4.80;2.50;;;;;;;26.50;34.44;97287.61;116198;1180;69920;-77
2021/08/31 09:54:48;;;;;;;2.50;2.20;;;;;;;26.45;31.99;97289.63;116146;1184;68353;-75
2021/08/31 09:57:41;;;;;;;2.40;2.20;;;;;;;25.46;33.35;97286.50;116167;1184;69857;-80
2021/08/31 10:00:15;;;;;;;3.10;2.30;;;;;;;25.35;32.84;97283.98;116022;1184;59508;-72
2021/08/31 10:02:48;;;;;;;4.10;2.60;;;;;;;24.98;35.19;97279.44;116211;1179;59572;-76
2021/08/31 10:05:17;;;;;;;3.00;2.40;;;;;;;25.56;35.53;97279.52;116206;1184;71416;-76
2021/08/31 10:07:46;;;;;;;7.20;2.30;;;;;;;25.67;33.44;97279.08;116194;1184;69030;-78
2021/08/31 10:10:16;;;;;;;4.70;2.60;;;;;;;25.54;33.03;97279.90;116173;1184;69155;-81
2021/08/31 10:12:48;;;;;;;4.30;2.30;;;;;;;25.04;34.21;97281.98;116205;1181;59569;-78
2021/08/31 10:15:17;;;;;;;3.20;2.50;;;;;;;25.14;34.58;97278.61;116221;1184;59555;-78
2021/08/31 10:17:46;;;;;;;3.30;2.30;;;;;;;25.25;34.31;97272.94;116179;1184;71174;-76
2021/08/31 10:20:21;;;;;;;;;;;;;;;25.28;34.05;97269.73;116239;1184;68481;-80
2021/08/31 10:23:13;;;;;;;2.40;2.20;;;;;;;25.33;34.22;97269.23;116034;1184;69208;-81
2021/08/31 10:25:43;;;;;;;4.50;2.20;;;;;;;25.17;33.94;97273.80;116193;1181;59546;-77
2021/08/31 10:28:23;;;;;;;3.40;2.20;;;;;;;24.65;34.23;97264.39;116258;1183;59542;-74
2021/08/31 10:30:53;;;;;;;3.70;2.10;;;;;;;24.56;35.42;97260.52;116251;1184;71173;-77
2021/08/31 10:33:35;;;;;;;7.60;2.40;;;;;;;24.62;35.93;97262.60;116297;1178;68019;-76
2021/08/31 10:36:11;;;;;;;3.20;2.30;;;;;;;24.60;35.94;97259.48;116270;1184;69126;-78
2021/08/31 10:38:47;;;;;;;2.90;2.30;;;;;;;24.44;35.79;97259.52;116234;1183;59572;-73
2021/08/31 10:41:47;;;;;;;3.60;2.50;;;;;;;24.11;35.90;97257.38;116276;1184;59551;-79
2021/08/31 10:44:41;;;;;;;3.70;2.30;;;;;;;24.22;36.96;97255.21;116319;1183;71218;-78
2021/08/31 10:47:11;;;;;;;3.20;2.20;;;;;;;24.21;37.10;97259.60;116261;1183;69242;-75
2021/08/31 10:50:13;;;;;;;5.90;2.40;;;;;;;24.30;36.26;97259.89;116247;1183;68310;-80
2021/08/31 10:52:50;;;;;;;5.60;2.40;;;;;;;24.41;36.54;97258.24;116235;1184;59621;-75
2021/08/31 10:55:23;;;;;;;3.50;2.20;;;;;;;23.99;35.98;97262.91;116322;1184;59555;-78
2021/08/31 10:57:54;;;;;;;7.90;2.40;;;;;;;23.71;37.34;97260.60;116291;1184;70406;-75
2021/08/31 11:00:27;;;;;;;3.30;2.20;;;;;;;23.53;38.12;97265.70;116319;1184;69177;-74
2021/08/31 11:02:58;;;;;;;3.00;2.40;;;;;;;23.39;37.99;97267.80;116282;1183;68648;-76
2021/08/31 11:05:30;;;;;;;5.30;2.50;;;;;;;23.45;38.11;97263.27;116298;1184;59539;-81
2021/08/31 11:08:02;;;;;;;5.80;2.50;;;;;;;23.58;38.48;97264.51;116293;1183;59600;-77
2021/08/31 11:10:32;;;;;;;3.50;2.40;;;;;;;23.79;37.77;97262.02;116309;1183;71381;-78
2021/08/31 11:13:16;;;;;;;4.50;2.40;;;;;;;23.84;38.21;97262.07;116315;1184;68362;-80
2021/08/31 11:15:50;;;;;;;2.90;2.30;;;;;;;23.31;37.93;97261.77;116143;1184;69242;-71
2021/08/31 11:18:21;;;;;;;3.70;2.70;;;;;;;23.18;39.40;97263.09;116298;1181;59548;-72
2021/08/31 11:20:50;;;;;;;5.20;2.40;;;;;;;23.13;39.37;97258.11;116137;1181;59528;-74
2021/08/31 11:23:24;;;;;;;2.40;2.20;;;;;;;23.00;39.33;97258.27;116156;1180;71520;-74
2021/08/31 11:25:58;;;;;;;2.50;2.10;;;;;;;22.75;39.99;97254.02;116313;1183;68481;-80
2021/08/31 11:28:33;;;;;;;3.10;2.30;;;;;;;22.70;40.66;97252.65;116316;1183;68487;-72
2021/08/31 11:31:15;;;;;;;2.80;2.30;;;;;;;22.80;39.04;97252.83;116234;1179;59567;-78
2021/08/31 11:33:45;;;;;;;2.90;2.30;;;;;;;22.59;39.97;97252.86;116278;1183;59555;-74
2021/08/31 11:36:17;;;;;;;3.20;1.90;;;;;;;22.61;39.10;97246.27;116291;1180;70756;-74
2021/08/31 11:38:52;;;;;;;4.50;2.40;;;;;;;22.36;39.78;97255.66;116232;1184;69097;-73
2021/08/31 11:41:24;;;;;;;4.30;2.50;;;;;;;21.95;40.55;97250.12;116341;1184;68475;-74